sensor_id;sensor_type;location;lat;lon;timestamp;temperature;humidity
21417;DHT22;10869;52.238;10.716;2022-11-24T04:02:41;6.70;99.90
21417;DHT22;10869;52.238;10.716;2022-11-24T04:05:07;6.70;99.90
21417;DHT22;10869;52.238;10.716;2022-11-24T04:07:32;6.70;99.90
21417;DHT22;10869;52.238;10.716;2022-11-24T04:09:58;6.70;99.90
21417;DHT22;10869;52.238;10.716;2022-11-24T04:12:24;6.70;99.90
21417;DHT22;10869;52.238;10.716;2022-11-24T04:15:09;6.70;99.90
21417;DHT22;10869;52.238;10.716;2022-11-24T04:17:35;6.70;99.90
21417;DHT22;10869;52.238;10.716;2022-11-24T04:20:02;6.70;99.90
21417;DHT22;10869;52.238;10.716;2022-11-24T04:22:27;6.70;99.90
21417;DHT22;10869;52.238;10.716;2022-11-24T04:24:53;6.80;99.90
21417;DHT22;10869;52.238;10.716;2022-11-24T04:27:19;6.80;99.90
21417;DHT22;10869;52.238;10.716;2022-11-24T04:29:45;6.80;99.90
21417;DHT22;10869;52.238;10.716;2022-11-24T04:32:10;6.80;99.90
21417;DHT22;10869;52.238;10.716;2022-11-24T04:34:36;6.90;99.90
21417;DHT22;10869;52.238;10.716;2022-11-24T04:37:02;6.90;99.90
21417;DHT22;10869;52.238;10.716;2022-11-24T04:39:28;6.90;99.90
21417;DHT22;10869;52.238;10.716;2022-11-24T04:41:54;6.90;99.90
21417;DHT22;10869;52.238;10.716;2022-11-24T04:44:20;6.90;99.90
21417;DHT22;10869;52.238;10.716;2022-11-24T04:46:45;6.90;99.90
21417;DHT22;10869;52.238;10.716;2022-11-24T04:49:11;6.90;99.90
21417;DHT22;10869;52.238;10.716;2022-11-24T04:51:38;6.80;99.90
21417;DHT22;10869;52.238;10.716;2022-11-24T04:54:05;6.80;99.90
21417;DHT22;10869;52.238;10.716;2022-11-24T04:56:31;6.80;99.90
21417;DHT22;10869;52.238;10.716;2022-11-24T04:58:58;6.70;99.90
21417;DHT22;10869;52.238;10.716;2022-11-24T05:01:24;6.70;99.90
21417;DHT22;10869;52.238;10.716;2022-11-24T05:03:52;6.70;99.90
21417;DHT22;10869;52.238;10.716;2022-11-24T05:06:19;6.70;99.90
21417;DHT22;10869;52.238;10.716;2022-11-24T05:08:49;6.70;99.90
21417;DHT22;10869;52.238;10.716;2022-11-24T05:11:16;6.70;99.90
21417;DHT22;10869;52.238;10.716;2022-11-24T05:13:42;6.80;99.90
21417;DHT22;10869;52.238;10.716;2022-11-24T05:16:07;6.80;99.90
21417;DHT22;10869;52.238;10.716;2022-11-24T05:18:33;6.80;99.90
21417;DHT22;10869;52.238;10.716;2022-11-24T05:21:00;6.80;99.90
21417;DHT22;10869;52.238;10.716;2022-11-24T05:23:26;6.80;99.90
21417;DHT22;10869;52.238;10.716;2022-11-24T05:25:52;6.80;99.90
21417;DHT22;10869;52.238;10.716;2022-11-24T05:28:18;6.90;99.90
21417;DHT22;10869;52.238;10.716;2022-11-24T05:30:44;6.90;99.90
21417;DHT22;10869;52.238;10.716;2022-11-24T05:33:12;6.90;99.90
21417;DHT22;10869;52.238;10.716;2022-11-24T05:35:44;6.90;99.90
21417;DHT22;10869;52.238;10.716;2022-11-24T05:38:09;6.90;99.90
21417;DHT22;10869;52.238;10.716;2022-11-24T05:40:36;6.90;99.90
21417;DHT22;10869;52.238;10.716;2022-11-24T05:43:02;7.00;99.90
21417;DHT22;10869;52.238;10.716;2022-11-24T05:45:28;7.00;99.90
21417;DHT22;10869;52.238;10.716;2022-11-24T05:47:54;7.00;99.90
21417;DHT22;10869;52.238;10.716;2022-11-24T05:50:21;7.00;99.90
21417;DHT22;10869;52.238;10.716;2022-11-24T05:56:09;7.00;99.90
21417;DHT22;10869;52.238;10.716;2022-11-24T05:58:34;7.00;99.90
21417;DHT22;10869;52.238;10.716;2022-11-24T06:01:05;7.00;99.90
21417;DHT22;10869;52.238;10.716;2022-11-24T06:03:30;7.00;99.90
21417;DHT22;10869;52.238;10.716;2022-11-24T06:05:56;7.00;99.90
21417;DHT22;10869;52.238;10.716;2022-11-24T06:08:22;7.00;99.90
21417;DHT22;10869;52.238;10.716;2022-11-24T06:10:47;7.00;99.90
21417;DHT22;10869;52.238;10.716;2022-11-24T06:13:14;7.00;99.90
21417;DHT22;10869;52.238;10.716;2022-11-24T06:15:40;7.00;99.90
21417;DHT22;10869;52.238;10.716;2022-11-24T06:18:06;7.00;99.90
21417;DHT22;10869;52.238;10.716;2022-11-24T06:20:32;7.00;99.90
21417;DHT22;10869;52.238;10.716;2022-11-24T06:22:58;6.90;99.90
21417;DHT22;10869;52.238;10.716;2022-11-24T06:25:25;6.90;99.90
21417;DHT22;10869;52.238;10.716;2022-11-24T06:27:50;6.90;99.90
21417;DHT22;10869;52.238;10.716;2022-11-24T06:33:36;6.90;99.90
21417;DHT22;10869;52.238;10.716;2022-11-24T06:36:06;6.90;99.90
21417;DHT22;10869;52.238;10.716;2022-11-24T06:45:15;6.80;99.90
21417;DHT22;10869;52.238;10.716;2022-11-24T06:47:41;6.80;99.90
21417;DHT22;10869;52.238;10.716;2022-11-24T06:50:08;6.80;99.90
21417;DHT22;10869;52.238;10.716;2022-11-24T06:52:35;6.80;99.90
21417;DHT22;10869;52.238;10.716;2022-11-24T06:55:18;6.90;99.90
21417;DHT22;10869;52.238;10.716;2022-11-24T06:57:44;6.90;99.90
21417;DHT22;10869;52.238;10.716;2022-11-24T07:49:37;7.40;99.90
21417;DHT22;10869;52.238;10.716;2022-11-24T07:52:04;7.50;99.90
21417;DHT22;10869;52.238;10.716;2022-11-24T07:54:34;7.50;99.90
21417;DHT22;10869;52.238;10.716;2022-11-24T07:57:01;7.50;99.90
21417;DHT22;10869;52.238;10.716;2022-11-24T08:05:24;7.70;99.90
21417;DHT22;10869;52.238;10.716;2022-11-24T08:07:50;7.80;99.90
21417;DHT22;10869;52.238;10.716;2022-11-24T08:10:16;7.80;99.90
21417;DHT22;10869;52.238;10.716;2022-11-24T08:12:42;7.80;99.90
21417;DHT22;10869;52.238;10.716;2022-11-24T08:15:08;7.90;99.90
21417;DHT22;10869;52.238;10.716;2022-11-24T08:17:34;7.90;99.90
21417;DHT22;10869;52.238;10.716;2022-11-24T08:20:01;7.90;99.90
21417;DHT22;10869;52.238;10.716;2022-11-24T08:25:37;8.00;99.90
21417;DHT22;10869;52.238;10.716;2022-11-24T08:28:04;8.00;99.90
21417;DHT22;10869;52.238;10.716;2022-11-24T08:30:30;8.10;99.90
21417;DHT22;10869;52.238;10.716;2022-11-24T08:32:58;8.10;99.90
21417;DHT22;10869;52.238;10.716;2022-11-24T08:35:25;8.10;99.90
21417;DHT22;10869;52.238;10.716;2022-11-24T08:37:51;8.20;99.90
21417;DHT22;10869;52.238;10.716;2022-11-24T08:40:17;8.20;99.90
21417;DHT22;10869;52.238;10.716;2022-11-24T08:42:43;8.20;99.90
21417;DHT22;10869;52.238;10.716;2022-11-24T08:45:09;8.20;99.90
21417;DHT22;10869;52.238;10.716;2022-11-24T08:47:35;8.30;99.90
21417;DHT22;10869;52.238;10.716;2022-11-24T08:50:00;8.30;99.90
21417;DHT22;10869;52.238;10.716;2022-11-24T08:52:26;8.30;99.90
21417;DHT22;10869;52.238;10.716;2022-11-24T08:58:14;8.30;99.90
21417;DHT22;10869;52.238;10.716;2022-11-24T09:00:41;8.20;99.90
21417;DHT22;10869;52.238;10.716;2022-11-24T09:03:10;8.20;99.90
21417;DHT22;10869;52.238;10.716;2022-11-24T09:05:36;8.30;99.90
21417;DHT22;10869;52.238;10.716;2022-11-24T09:08:02;8.20;99.90
21417;DHT22;10869;52.238;10.716;2022-11-24T09:10:28;8.30;99.90
21417;DHT22;10869;52.238;10.716;2022-11-24T09:25:51;8.60;99.90
21417;DHT22;10869;52.238;10.716;2022-11-24T09:28:17;8.50;99.90
21417;DHT22;10869;52.238;10.716;2022-11-24T09:30:42;8.50;99.90
21417;DHT22;10869;52.238;10.716;2022-11-24T09:33:08;8.60;99.90
21417;DHT22;10869;52.238;10.716;2022-11-24T09:35:36;8.60;99.90
21417;DHT22;10869;52.238;10.716;2022-11-24T09:38:02;8.60;99.90
21417;DHT22;10869;52.238;10.716;2022-11-24T09:40:28;8.60;99.90
21417;DHT22;10869;52.238;10.716;2022-11-24T09:46:00;8.70;99.90
21417;DHT22;10869;52.238;10.716;2022-11-24T09:48:34;8.80;99.90
21417;DHT22;10869;52.238;10.716;2022-11-24T09:51:02;8.90;99.90
21417;DHT22;10869;52.238;10.716;2022-11-24T09:53:42;9.00;99.90
21417;DHT22;10869;52.238;10.716;2022-11-24T09:56:21;9.00;99.90
21417;DHT22;10869;52.238;10.716;2022-11-24T09:58:50;9.10;99.90
21417;DHT22;10869;52.238;10.716;2022-11-24T10:01:51;9.30;99.90
21417;DHT22;10869;52.238;10.716;2022-11-24T10:23:27;9.20;99.90
21417;DHT22;10869;52.238;10.716;2022-11-24T10:25:59;9.20;99.90
21417;DHT22;10869;52.238;10.716;2022-11-24T10:28:52;9.40;99.90
21417;DHT22;10869;52.238;10.716;2022-11-24T10:31:34;9.50;99.90
21417;DHT22;10869;52.238;10.716;2022-11-24T10:34:20;9.70;99.90
21417;DHT22;10869;52.238;10.716;2022-11-24T10:37:36;9.80;99.90
21417;DHT22;10869;52.238;10.716;2022-11-24T10:39:53;9.90;99.90
21417;DHT22;10869;52.238;10.716;2022-11-24T10:42:32;10.00;99.90
21417;DHT22;10869;52.238;10.716;2022-11-24T10:47:39;9.90;99.90
21417;DHT22;10869;52.238;10.716;2022-11-24T10:50:26;9.90;99.90
21417;DHT22;10869;52.238;10.716;2022-11-24T10:53:17;9.80;99.90
21417;DHT22;10869;52.238;10.716;2022-11-24T10:58:29;9.50;99.90
21417;DHT22;10869;52.238;10.716;2022-11-24T11:00:58;9.40;99.90
21417;DHT22;10869;52.238;10.716;2022-11-24T11:06:26;9.30;99.90
21417;DHT22;10869;52.238;10.716;2022-11-24T11:11:31;9.30;99.90
21417;DHT22;10869;52.238;10.716;2022-11-24T11:14:03;9.30;99.90
21417;DHT22;10869;52.238;10.716;2022-11-24T11:16:36;9.30;99.90
21417;DHT22;10869;52.238;10.716;2022-11-24T11:19:04;9.30;99.90
21417;DHT22;10869;52.238;10.716;2022-11-24T11:21:36;9.40;99.90
21417;DHT22;10869;52.238;10.716;2022-11-24T11:24:12;9.40;99.90
21417;DHT22;10869;52.238;10.716;2022-11-24T11:26:39;9.40;99.90
21417;DHT22;10869;52.238;10.716;2022-11-24T11:29:15;9.40;99.90
21417;DHT22;10869;52.238;10.716;2022-11-24T11:35:11;9.60;99.90
21417;DHT22;10869;52.238;10.716;2022-11-24T11:37:36;9.60;99.90
21417;DHT22;10869;52.238;10.716;2022-11-24T11:40:11;9.60;99.90
21417;DHT22;10869;52.238;10.716;2022-11-24T11:45:44;9.80;99.90
21417;DHT22;10869;52.238;10.716;2022-11-24T11:48:43;9.90;99.90
21417;DHT22;10869;52.238;10.716;2022-11-24T11:57:57;10.40;99.90
21417;DHT22;10869;52.238;10.716;2022-11-24T12:00:25;10.40;99.90
21417;DHT22;10869;52.238;10.716;2022-11-24T12:03:04;10.30;99.90
21417;DHT22;10869;52.238;10.716;2022-11-24T12:17:35;9.70;99.90
21417;DHT22;10869;52.238;10.716;2022-11-24T12:29:10;9.60;99.90
21417;DHT22;10869;52.238;10.716;2022-11-24T12:43:12;9.70;99.90
21417;DHT22;10869;52.238;10.716;2022-11-24T12:52:25;9.80;99.90
21417;DHT22;10869;52.238;10.716;2022-11-24T13:04:36;10.50;99.90
21417;DHT22;10869;52.238;10.716;2022-11-24T13:24:03;10.30;99.90
21417;DHT22;10869;52.238;10.716;2022-11-24T13:47:59;9.90;99.90
21417;DHT22;10869;52.238;10.716;2022-11-24T13:53:45;9.90;99.90
21417;DHT22;10869;52.238;10.716;2022-11-24T14:12:33;9.80;99.90
21417;DHT22;10869;52.238;10.716;2022-11-24T14:18:22;9.70;99.90
21417;DHT22;10869;52.238;10.716;2022-11-24T14:20:48;9.60;99.90
21417;DHT22;10869;52.238;10.716;2022-11-24T14:23:14;9.60;99.90
21417;DHT22;10869;52.238;10.716;2022-11-24T14:25:46;9.60;99.90
21417;DHT22;10869;52.238;10.716;2022-11-24T14:28:35;9.50;99.90
21417;DHT22;10869;52.238;10.716;2022-11-24T14:34:34;9.50;99.90
21417;DHT22;10869;52.238;10.716;2022-11-24T14:37:00;9.40;99.90
21417;DHT22;10869;52.238;10.716;2022-11-24T14:39:29;9.40;99.90
21417;DHT22;10869;52.238;10.716;2022-11-24T14:42:06;9.30;99.90
21417;DHT22;10869;52.238;10.716;2022-11-24T14:44:54;9.30;99.90
21417;DHT22;10869;52.238;10.716;2022-11-24T14:47:25;9.30;99.90
21417;DHT22;10869;52.238;10.716;2022-11-24T14:49:58;9.30;99.90
21417;DHT22;10869;52.238;10.716;2022-11-24T14:52:32;9.20;99.90
21417;DHT22;10869;52.238;10.716;2022-11-24T14:55:02;9.20;99.90
21417;DHT22;10869;52.238;10.716;2022-11-24T15:04:14;9.10;99.90
21417;DHT22;10869;52.238;10.716;2022-11-24T15:06:45;9.00;99.90
21417;DHT22;10869;52.238;10.716;2022-11-24T15:09:34;9.00;99.90
21417;DHT22;10869;52.238;10.716;2022-11-24T15:18:25;8.90;99.90
21417;DHT22;10869;52.238;10.716;2022-11-24T15:20:52;8.80;99.90
21417;DHT22;10869;52.238;10.716;2022-11-24T15:23:29;8.80;99.90
21417;DHT22;10869;52.238;10.716;2022-11-24T15:29:17;8.80;99.90
21417;DHT22;10869;52.238;10.716;2022-11-24T15:31:46;8.70;99.90
21417;DHT22;10869;52.238;10.716;2022-11-24T15:34:12;8.70;99.90
21417;DHT22;10869;52.238;10.716;2022-11-24T15:36:40;8.60;99.90
21417;DHT22;10869;52.238;10.716;2022-11-24T15:39:06;8.60;99.90
21417;DHT22;10869;52.238;10.716;2022-11-24T15:41:33;8.50;99.90
21417;DHT22;10869;52.238;10.716;2022-11-24T15:43:59;8.50;99.90
21417;DHT22;10869;52.238;10.716;2022-11-24T15:46:29;8.40;99.90
21417;DHT22;10869;52.238;10.716;2022-11-24T15:49:02;8.40;99.90
21417;DHT22;10869;52.238;10.716;2022-11-24T15:51:28;8.40;99.90
21417;DHT22;10869;52.238;10.716;2022-11-24T15:53:55;8.30;99.90
21417;DHT22;10869;52.238;10.716;2022-11-24T15:56:32;8.30;99.90
21417;DHT22;10869;52.238;10.716;2022-11-24T15:58:58;8.30;99.90
21417;DHT22;10869;52.238;10.716;2022-11-24T16:01:28;8.20;99.90
21417;DHT22;10869;52.238;10.716;2022-11-24T16:03:54;8.20;99.90
21417;DHT22;10869;52.238;10.716;2022-11-24T16:06:20;8.20;99.90
21417;DHT22;10869;52.238;10.716;2022-11-24T16:08:46;8.10;99.90
21417;DHT22;10869;52.238;10.716;2022-11-24T16:11:12;8.10;99.90
21417;DHT22;10869;52.238;10.716;2022-11-24T16:13:38;8.00;99.90
21417;DHT22;10869;52.238;10.716;2022-11-24T16:16:04;8.00;99.90
21417;DHT22;10869;52.238;10.716;2022-11-24T16:18:30;7.90;99.90
21417;DHT22;10869;52.238;10.716;2022-11-24T16:20:59;7.80;99.90
21417;DHT22;10869;52.238;10.716;2022-11-24T16:23:25;7.70;99.90
21417;DHT22;10869;52.238;10.716;2022-11-24T16:25:51;7.70;99.90
21417;DHT22;10869;52.238;10.716;2022-11-24T16:28:17;7.60;99.90
21417;DHT22;10869;52.238;10.716;2022-11-24T16:30:47;7.50;99.90
21417;DHT22;10869;52.238;10.716;2022-11-24T16:36:36;7.40;99.90
21417;DHT22;10869;52.238;10.716;2022-11-24T16:39:02;7.40;99.90
21417;DHT22;10869;52.238;10.716;2022-11-24T16:41:28;7.40;99.90
21417;DHT22;10869;52.238;10.716;2022-11-24T16:43:53;7.40;99.90
21417;DHT22;10869;52.238;10.716;2022-11-24T16:46:21;7.40;99.90
21417;DHT22;10869;52.238;10.716;2022-11-24T16:48:49;7.30;99.90
21417;DHT22;10869;52.238;10.716;2022-11-24T16:51:16;7.30;99.90
21417;DHT22;10869;52.238;10.716;2022-11-24T16:57:04;7.30;99.90
21417;DHT22;10869;52.238;10.716;2022-11-24T16:59:31;7.30;99.90
21417;DHT22;10869;52.238;10.716;2022-11-24T17:01:57;7.20;99.90
21417;DHT22;10869;52.238;10.716;2022-11-24T17:04:24;7.20;99.90
21417;DHT22;10869;52.238;10.716;2022-11-24T17:06:50;7.10;99.90
21417;DHT22;10869;52.238;10.716;2022-11-24T17:09:16;7.10;99.90
21417;DHT22;10869;52.238;10.716;2022-11-24T17:11:43;7.20;99.90
21417;DHT22;10869;52.238;10.716;2022-11-24T17:17:31;7.20;99.90
21417;DHT22;10869;52.238;10.716;2022-11-24T17:23:19;7.20;99.90
21417;DHT22;10869;52.238;10.716;2022-11-24T17:25:45;7.20;99.90
21417;DHT22;10869;52.238;10.716;2022-11-24T17:28:10;7.20;99.90
21417;DHT22;10869;52.238;10.716;2022-11-24T17:30:36;7.20;99.90
21417;DHT22;10869;52.238;10.716;2022-11-24T17:35:38;7.20;99.90
21417;DHT22;10869;52.238;10.716;2022-11-24T17:38:03;7.20;99.90
21417;DHT22;10869;52.238;10.716;2022-11-24T17:40:29;7.20;99.90
21417;DHT22;10869;52.238;10.716;2022-11-24T17:42:59;7.20;99.90
21417;DHT22;10869;52.238;10.716;2022-11-24T17:45:26;7.30;99.90
21417;DHT22;10869;52.238;10.716;2022-11-24T17:47:52;7.20;99.90
21417;DHT22;10869;52.238;10.716;2022-11-24T17:50:17;7.20;99.90
21417;DHT22;10869;52.238;10.716;2022-11-24T17:52:43;7.20;99.90
21417;DHT22;10869;52.238;10.716;2022-11-24T17:55:09;7.20;99.90
21417;DHT22;10869;52.238;10.716;2022-11-24T17:57:35;7.20;99.90
21417;DHT22;10869;52.238;10.716;2022-11-24T18:00:02;7.20;99.90
21417;DHT22;10869;52.238;10.716;2022-11-24T18:02:28;7.10;99.90
21417;DHT22;10869;52.238;10.716;2022-11-24T18:04:54;7.10;99.90
21417;DHT22;10869;52.238;10.716;2022-11-24T18:10:43;7.00;99.90
21417;DHT22;10869;52.238;10.716;2022-11-24T18:16:32;6.90;99.90
21417;DHT22;10869;52.238;10.716;2022-11-24T18:19:00;6.90;99.90
21417;DHT22;10869;52.238;10.716;2022-11-24T18:21:30;6.90;99.90
21417;DHT22;10869;52.238;10.716;2022-11-24T18:27:18;6.90;99.90
21417;DHT22;10869;52.238;10.716;2022-11-24T18:29:44;6.80;99.90
21417;DHT22;10869;52.238;10.716;2022-11-24T18:32:09;6.70;99.90
21417;DHT22;10869;52.238;10.716;2022-11-24T18:37:57;6.60;99.90
21417;DHT22;10869;52.238;10.716;2022-11-24T18:40:23;6.50;99.90
21417;DHT22;10869;52.238;10.716;2022-11-24T18:46:15;6.50;99.90
21417;DHT22;10869;52.238;10.716;2022-11-24T18:52:03;6.50;99.90
21417;DHT22;10869;52.238;10.716;2022-11-24T18:57:51;6.60;99.90
21417;DHT22;10869;52.238;10.716;2022-11-24T19:00:18;6.60;99.90
21417;DHT22;10869;52.238;10.716;2022-11-24T19:02:48;6.70;99.90
21417;DHT22;10869;52.238;10.716;2022-11-24T19:05:14;6.70;99.90
21417;DHT22;10869;52.238;10.716;2022-11-24T19:07:40;6.80;99.90
21417;DHT22;10869;52.238;10.716;2022-11-24T19:10:06;6.80;99.90
21417;DHT22;10869;52.238;10.716;2022-11-24T19:15:54;6.80;99.90
21417;DHT22;10869;52.238;10.716;2022-11-24T19:18:20;6.90;99.90
21417;DHT22;10869;52.238;10.716;2022-11-24T19:20:46;6.90;99.90
21417;DHT22;10869;52.238;10.716;2022-11-24T19:23:12;6.90;99.90
21417;DHT22;10869;52.238;10.716;2022-11-24T19:25:38;6.90;99.90
21417;DHT22;10869;52.238;10.716;2022-11-24T19:32:05;6.90;99.90
21417;DHT22;10869;52.238;10.716;2022-11-24T19:34:56;7.00;99.90
21417;DHT22;10869;52.238;10.716;2022-11-24T19:37:31;7.00;99.90
21417;DHT22;10869;52.238;10.716;2022-11-24T19:39:56;6.90;99.90
21417;DHT22;10869;52.238;10.716;2022-11-24T19:45:47;7.00;99.90
21417;DHT22;10869;52.238;10.716;2022-11-24T19:51:36;6.90;99.90
21417;DHT22;10869;52.238;10.716;2022-11-24T19:57:25;6.80;99.90
21417;DHT22;10869;52.238;10.716;2022-11-24T19:59:50;6.80;99.90
21417;DHT22;10869;52.238;10.716;2022-11-24T20:02:17;6.70;99.90
21417;DHT22;10869;52.238;10.716;2022-11-24T20:08:04;6.70;99.90
21417;DHT22;10869;52.238;10.716;2022-11-24T20:13:52;6.70;99.90
21417;DHT22;10869;52.238;10.716;2022-11-24T20:19:40;6.60;99.90
21417;DHT22;10869;52.238;10.716;2022-11-24T20:22:09;6.60;99.90
21417;DHT22;10869;52.238;10.716;2022-11-24T20:27:57;6.50;99.90
21417;DHT22;10869;52.238;10.716;2022-11-24T20:33:45;6.40;99.90
21417;DHT22;10869;52.238;10.716;2022-11-24T20:39:32;6.30;99.90
21417;DHT22;10869;52.238;10.716;2022-11-24T20:41:58;6.30;99.90
21417;DHT22;10869;52.238;10.716;2022-11-24T20:47:46;6.10;99.90
21417;DHT22;10869;52.238;10.716;2022-11-24T20:50:11;6.00;99.90
21417;DHT22;10869;52.238;10.716;2022-11-24T20:52:37;6.00;99.90
21417;DHT22;10869;52.238;10.716;2022-11-24T20:55:03;5.90;99.90
21417;DHT22;10869;52.238;10.716;2022-11-24T20:57:30;5.90;99.90
21417;DHT22;10869;52.238;10.716;2022-11-24T20:59:56;5.90;99.90
21417;DHT22;10869;52.238;10.716;2022-11-24T21:05:44;5.90;99.90
21417;DHT22;10869;52.238;10.716;2022-11-24T21:08:12;5.90;99.90
21417;DHT22;10869;52.238;10.716;2022-11-24T21:14:03;5.90;99.90
21417;DHT22;10869;52.238;10.716;2022-11-24T21:16:36;5.90;99.90
21417;DHT22;10869;52.238;10.716;2022-11-24T21:19:04;5.80;99.90
21417;DHT22;10869;52.238;10.716;2022-11-24T21:21:32;5.80;99.90
21417;DHT22;10869;52.238;10.716;2022-11-24T21:24:04;5.80;99.90
21417;DHT22;10869;52.238;10.716;2022-11-24T21:26:30;5.80;99.90
21417;DHT22;10869;52.238;10.716;2022-11-24T21:32:20;5.90;99.90
21417;DHT22;10869;52.238;10.716;2022-11-24T21:34:46;5.80;99.90
21417;DHT22;10869;52.238;10.716;2022-11-24T21:37:12;5.80;99.90
21417;DHT22;10869;52.238;10.716;2022-11-24T21:39:38;5.80;99.90
21417;DHT22;10869;52.238;10.716;2022-11-24T21:42:07;5.80;99.90
21417;DHT22;10869;52.238;10.716;2022-11-24T21:44:33;5.80;99.90
21417;DHT22;10869;52.238;10.716;2022-11-24T21:46:59;5.70;99.90
21417;DHT22;10869;52.238;10.716;2022-11-24T21:49:25;5.80;99.90
21417;DHT22;10869;52.238;10.716;2022-11-24T21:55:13;5.80;99.90
21417;DHT22;10869;52.238;10.716;2022-11-24T21:57:39;5.70;99.90
21417;DHT22;10869;52.238;10.716;2022-11-24T22:00:05;5.70;99.90
21417;DHT22;10869;52.238;10.716;2022-11-24T22:02:31;5.70;99.90
21417;DHT22;10869;52.238;10.716;2022-11-24T22:04:57;5.70;99.90
21417;DHT22;10869;52.238;10.716;2022-11-24T22:07:23;5.60;99.90
21417;DHT22;10869;52.238;10.716;2022-11-24T22:09:48;5.60;99.90
21417;DHT22;10869;52.238;10.716;2022-11-24T22:12:15;5.60;99.90
21417;DHT22;10869;52.238;10.716;2022-11-24T22:14:40;5.60;99.90
21417;DHT22;10869;52.238;10.716;2022-11-24T22:17:06;5.70;99.90
21417;DHT22;10869;52.238;10.716;2022-11-24T22:19:32;5.70;99.90
21417;DHT22;10869;52.238;10.716;2022-11-24T22:21:58;5.60;99.90
21417;DHT22;10869;52.238;10.716;2022-11-24T22:24:47;5.70;99.90
21417;DHT22;10869;52.238;10.716;2022-11-24T22:30:45;5.70;99.90
21417;DHT22;10869;52.238;10.716;2022-11-24T22:33:10;5.70;99.90
21417;DHT22;10869;52.238;10.716;2022-11-24T22:35:37;5.70;99.90
21417;DHT22;10869;52.238;10.716;2022-11-24T22:38:03;5.80;99.90
21417;DHT22;10869;52.238;10.716;2022-11-24T22:40:29;5.80;99.90
21417;DHT22;10869;52.238;10.716;2022-11-24T22:42:54;5.90;99.90
21417;DHT22;10869;52.238;10.716;2022-11-24T22:45:22;5.90;99.90
21417;DHT22;10869;52.238;10.716;2022-11-24T22:47:52;5.90;99.90
21417;DHT22;10869;52.238;10.716;2022-11-24T22:53:41;5.90;99.90
21417;DHT22;10869;52.238;10.716;2022-11-24T22:56:09;5.80;99.90
21417;DHT22;10869;52.238;10.716;2022-11-24T22:58:36;5.80;99.90
21417;DHT22;10869;52.238;10.716;2022-11-24T23:01:10;5.80;99.90
21417;DHT22;10869;52.238;10.716;2022-11-24T23:03:37;5.80;99.90
21417;DHT22;10869;52.238;10.716;2022-11-24T23:06:06;5.80;99.90
21417;DHT22;10869;52.238;10.716;2022-11-24T23:08:34;5.80;99.90
21417;DHT22;10869;52.238;10.716;2022-11-24T23:11:04;5.80;99.90
21417;DHT22;10869;52.238;10.716;2022-11-24T23:13:31;5.80;99.90
21417;DHT22;10869;52.238;10.716;2022-11-24T23:18:27;5.80;99.90
21417;DHT22;10869;52.238;10.716;2022-11-24T23:20:53;5.80;99.90
21417;DHT22;10869;52.238;10.716;2022-11-24T23:23:18;5.70;99.90
21417;DHT22;10869;52.238;10.716;2022-11-24T23:25:44;5.70;99.90
21417;DHT22;10869;52.238;10.716;2022-11-24T23:28:10;5.70;99.90
21417;DHT22;10869;52.238;10.716;2022-11-24T23:30:36;5.70;99.90
21417;DHT22;10869;52.238;10.716;2022-11-24T23:33:01;5.70;99.90
21417;DHT22;10869;52.238;10.716;2022-11-24T23:35:27;5.60;99.90
21417;DHT22;10869;52.238;10.716;2022-11-24T23:37:53;5.60;99.90
21417;DHT22;10869;52.238;10.716;2022-11-24T23:40:19;5.60;99.90
21417;DHT22;10869;52.238;10.716;2022-11-24T23:42:48;5.50;99.90
21417;DHT22;10869;52.238;10.716;2022-11-24T23:45:14;5.50;99.90
21417;DHT22;10869;52.238;10.716;2022-11-24T23:47:40;5.50;99.90
21417;DHT22;10869;52.238;10.716;2022-11-24T23:50:08;5.50;99.90
21417;DHT22;10869;52.238;10.716;2022-11-24T23:52:34;5.50;99.90
21417;DHT22;10869;52.238;10.716;2022-11-24T23:55:00;5.50;99.90
21417;DHT22;10869;52.238;10.716;2022-11-24T23:57:26;5.50;99.90
21417;DHT22;10869;52.238;10.716;2022-11-24T23:59:52;5.50;99.90
